createdAt,value
2023-04-06T00:00:20.470Z,63.00
2023-04-06T00:01:20.447Z,63.48
2023-04-06T00:02:20.474Z,63.29
2023-04-06T00:03:20.562Z,63.48
2023-04-06T00:04:20.462Z,64.04
2023-04-06T00:05:20.479Z,63.57
2023-04-06T00:06:20.461Z,63.57
2023-04-06T00:07:20.474Z,64.04
2023-04-06T00:08:20.490Z,64.04
2023-04-06T00:09:20.475Z,63.67
2023-04-06T00:10:20.475Z,63.57
2023-04-06T00:11:20.497Z,63.95
2023-04-06T00:12:20.480Z,64.32
2023-04-06T00:13:20.485Z,64.51
2023-04-06T00:14:20.489Z,64.51
2023-04-06T00:15:20.491Z,64.51
2023-04-06T00:16:20.710Z,64.61
2023-04-06T00:17:20.505Z,64.98
2023-04-06T00:18:20.511Z,64.98
2023-04-06T00:19:20.502Z,64.70
2023-04-06T00:20:20.522Z,64.51
2023-04-06T00:21:20.525Z,64.61
2023-04-06T00:22:20.511Z,65.08
2023-04-06T00:23:20.518Z,64.79
2023-04-06T00:24:20.532Z,64.79
2023-04-06T00:25:20.518Z,65.08
2023-04-06T00:26:20.522Z,64.70
2023-04-06T00:27:20.525Z,64.98
2023-04-06T00:28:20.541Z,65.17
2023-04-06T00:29:20.535Z,64.98
2023-04-06T00:30:20.540Z,64.98
2023-04-06T00:31:20.537Z,65.46
2023-04-06T00:32:20.580Z,65.74
2023-04-06T00:33:20.544Z,66.12
2023-04-06T00:34:20.556Z,66.22
2023-04-06T00:35:20.568Z,65.93
2023-04-06T00:36:20.638Z,65.65
2023-04-06T00:37:20.559Z,65.27
2023-04-06T00:38:20.557Z,65.27
2023-04-06T00:39:21.163Z,65.36
2023-04-06T00:40:20.612Z,65.65
2023-04-06T00:41:20.601Z,65.65
2023-04-06T00:42:20.569Z,65.27
2023-04-06T00:43:20.590Z,64.79
2023-04-06T00:44:20.612Z,65.27
2023-04-06T00:45:20.592Z,64.51
2023-04-06T00:46:20.647Z,64.51
2023-04-06T00:47:20.587Z,64.51
2023-04-06T00:48:20.584Z,64.51
2023-04-06T00:49:20.600Z,64.32
2023-04-06T00:50:20.594Z,63.85
2023-04-06T00:51:20.597Z,64.04
2023-04-06T00:52:20.597Z,63.67
2023-04-06T00:53:20.605Z,63.85
2023-04-06T00:54:20.603Z,64.32
2023-04-06T00:55:20.611Z,64.23
2023-04-06T00:56:20.633Z,64.70
2023-04-06T00:57:20.624Z,64.04
2023-04-06T00:58:20.616Z,63.95
2023-04-06T00:59:20.646Z,63.95
2023-04-06T01:00:20.633Z,63.95
2023-04-06T01:01:20.684Z,63.85
2023-04-06T01:02:20.672Z,63.95
2023-04-06T01:03:20.633Z,63.76
2023-04-06T01:04:20.646Z,63.38
2023-04-06T01:05:20.696Z,62.81
2023-04-06T01:06:20.659Z,62.53
2023-04-06T01:07:20.646Z,62.15
2023-04-06T01:08:20.657Z,62.15
2023-04-06T01:09:20.657Z,62.06
2023-04-06T01:10:20.651Z,62.25
2023-04-06T01:11:20.656Z,62.15
2023-04-06T01:12:20.679Z,62.15
2023-04-06T01:13:20.658Z,62.53
2023-04-06T01:14:20.662Z,62.62
2023-04-06T01:15:20.667Z,63.19
2023-04-06T01:16:20.703Z,62.53
2023-04-06T01:17:20.670Z,62.81
2023-04-06T01:18:20.674Z,62.78
2023-04-06T01:19:20.681Z,62.50
2023-04-06T01:20:20.682Z,62.72
2023-04-06T01:21:20.686Z,62.15
2023-04-06T01:22:20.684Z,61.87
2023-04-06T01:23:20.687Z,61.58
2023-04-06T01:24:20.686Z,61.87
2023-04-06T01:25:20.691Z,61.68
2023-04-06T01:26:20.694Z,62.31
2023-04-06T01:27:20.698Z,62.44
2023-04-06T01:28:20.718Z,62.59
2023-04-06T01:29:20.708Z,63.16
2023-04-06T01:30:20.711Z,62.69
2023-04-06T01:31:20.726Z,62.69
2023-04-06T01:32:20.709Z,62.62
2023-04-06T01:33:20.715Z,62.72
2023-04-06T01:34:20.715Z,62.53
2023-04-06T01:35:20.756Z,62.40
2023-04-06T01:36:20.736Z,62.34
2023-04-06T01:37:20.724Z,61.02
2023-04-06T01:38:20.723Z,58.94
2023-04-06T01:39:20.736Z,59.10
2023-04-06T01:40:20.730Z,58.82
2023-04-06T01:41:20.737Z,58.72
2023-04-06T01:42:20.745Z,59.00
2023-04-06T01:43:20.746Z,58.82
2023-04-06T01:44:20.772Z,59.38
2023-04-06T01:45:20.745Z,59.13
2023-04-06T01:46:20.764Z,59.19
2023-04-06T01:47:20.776Z,58.82
2023-04-06T01:48:20.753Z,58.72
2023-04-06T01:49:20.772Z,59.29
2023-04-06T01:50:20.757Z,58.63
2023-04-06T01:51:20.758Z,57.78
2023-04-06T01:52:20.758Z,57.50
2023-04-06T01:53:20.771Z,56.84
2023-04-06T01:54:20.763Z,57.03
2023-04-06T01:55:20.781Z,56.46
2023-04-06T01:56:20.767Z,56.17
2023-04-06T01:57:20.772Z,56.27
2023-04-06T01:58:20.779Z,56.27
2023-04-06T01:59:20.839Z,57.03
2023-04-06T02:00:20.805Z,56.74
2023-04-06T02:01:20.818Z,56.84
2023-04-06T02:02:20.848Z,57.40
2023-04-06T02:03:20.813Z,57.68
2023-04-06T02:04:20.786Z,57.62
2023-04-06T02:05:20.790Z,57.87
2023-04-06T02:06:20.790Z,57.87
2023-04-06T02:07:20.798Z,57.87
2023-04-06T02:08:20.801Z,58.63
2023-04-06T02:09:20.801Z,58.34
2023-04-06T02:10:20.800Z,58.53
2023-04-06T02:11:20.810Z,58.06
2023-04-06T02:12:20.804Z,58.72
2023-04-06T02:13:20.812Z,58.72
2023-04-06T02:14:20.811Z,58.25
2023-04-06T02:15:20.810Z,58.53
2023-04-06T02:16:20.891Z,57.87
2023-04-06T02:17:20.845Z,57.97
2023-04-06T02:18:20.823Z,57.78
2023-04-06T02:19:20.820Z,58.53
2023-04-06T02:20:20.826Z,58.82
2023-04-06T02:21:20.827Z,58.72
2023-04-06T02:22:20.838Z,59.19
2023-04-06T02:23:20.827Z,59.29
2023-04-06T02:24:20.841Z,58.91
2023-04-06T02:25:20.836Z,58.44
2023-04-06T02:26:20.840Z,57.78
2023-04-06T02:27:20.841Z,57.97
2023-04-06T02:28:20.844Z,58.53
2023-04-06T02:29:20.848Z,58.53
2023-04-06T02:30:20.850Z,58.44
2023-04-06T02:31:20.888Z,57.78
2023-04-06T02:32:20.974Z,58.06
2023-04-06T02:33:20.865Z,57.31
2023-04-06T02:34:20.865Z,57.21
2023-04-06T02:35:20.902Z,56.55
2023-04-06T02:36:20.865Z,57.03
2023-04-06T02:37:20.871Z,56.46
2023-04-06T02:38:20.869Z,55.51
2023-04-06T02:39:20.871Z,55.32
2023-04-06T02:40:20.874Z,56.08
2023-04-06T02:41:20.874Z,56.46
2023-04-06T02:42:20.883Z,56.46
2023-04-06T02:43:20.902Z,56.74
2023-04-06T02:44:20.887Z,57.40
2023-04-06T02:45:20.884Z,57.59
2023-04-06T02:46:20.937Z,57.87
2023-04-06T02:47:20.898Z,57.40
2023-04-06T02:48:20.955Z,57.40
2023-04-06T02:49:20.896Z,57.68
2023-04-06T02:50:20.907Z,57.97
2023-04-06T02:51:20.898Z,57.68
2023-04-06T02:52:20.911Z,58.63
2023-04-06T02:53:20.911Z,59.10
2023-04-06T02:54:20.922Z,58.63
2023-04-06T02:55:22.289Z,58.53
2023-04-06T02:56:20.917Z,58.06
2023-04-06T02:57:20.951Z,58.06
2023-04-06T02:58:20.921Z,57.68
2023-04-06T02:59:20.945Z,57.50
2023-04-06T03:00:20.931Z,57.59
2023-04-06T03:01:21.009Z,57.40
2023-04-06T03:02:21.018Z,56.55
2023-04-06T03:03:20.981Z,56.93
2023-04-06T03:04:20.954Z,56.65
2023-04-06T03:05:20.934Z,57.03
2023-04-06T03:06:20.940Z,56.74
2023-04-06T03:07:20.939Z,56.74
2023-04-06T03:08:20.945Z,56.55
2023-04-06T03:09:20.946Z,56.36
2023-04-06T03:10:20.956Z,55.89
2023-04-06T03:11:20.968Z,55.61
2023-04-06T03:12:20.959Z,55.04
2023-04-06T03:13:20.953Z,55.23
2023-04-06T03:14:20.958Z,55.13
2023-04-06T03:15:20.963Z,55.70
2023-04-06T03:16:21.056Z,55.89
2023-04-06T03:17:20.967Z,55.89
2023-04-06T03:18:20.967Z,55.80
2023-04-06T03:19:20.967Z,55.80
2023-04-06T03:20:21.003Z,55.51
2023-04-06T03:21:20.975Z,55.61
2023-04-06T03:22:20.978Z,55.32
2023-04-06T03:23:20.975Z,54.85
2023-04-06T03:24:20.984Z,55.42
2023-04-06T03:25:20.987Z,55.13
2023-04-06T03:26:20.986Z,55.23
2023-04-06T03:27:20.984Z,55.32
2023-04-06T03:28:20.989Z,54.38
2023-04-06T03:29:20.993Z,54.00
2023-04-06T03:30:21.002Z,53.72
2023-04-06T03:31:21.008Z,54.19
2023-04-06T03:32:21.002Z,54.00
2023-04-06T03:33:20.995Z,54.47
2023-04-06T03:34:21.005Z,54.47
2023-04-06T03:35:21.035Z,54.47
2023-04-06T03:36:21.031Z,54.57
2023-04-06T03:37:21.006Z,54.00
2023-04-06T03:38:21.012Z,54.47
2023-04-06T03:39:21.011Z,54.75
2023-04-06T03:40:21.023Z,54.75
2023-04-06T03:41:21.015Z,55.32
2023-04-06T03:42:21.023Z,55.13
2023-04-06T03:43:21.033Z,55.13
2023-04-06T03:44:21.039Z,55.23
2023-04-06T03:45:21.025Z,56.08
2023-04-06T03:46:21.064Z,55.89
2023-04-06T03:47:21.045Z,55.61
2023-04-06T03:48:21.036Z,55.13
2023-04-06T03:49:21.048Z,54.57
2023-04-06T03:50:21.041Z,54.00
2023-04-06T03:51:21.040Z,53.91
2023-04-06T03:52:21.076Z,53.81
2023-04-06T03:53:21.044Z,53.44
2023-04-06T03:54:21.048Z,53.44
2023-04-06T03:55:21.068Z,53.15
2023-04-06T03:56:21.056Z,53.25
2023-04-06T03:57:21.053Z,53.06
2023-04-06T03:58:21.086Z,53.91
2023-04-06T03:59:21.074Z,53.91
2023-04-06T04:00:21.071Z,54.57
2023-04-06T04:01:21.063Z,53.81
2023-04-06T04:02:21.164Z,54.28
2023-04-06T04:03:21.161Z,54.10
2023-04-06T04:04:21.074Z,53.81
2023-04-06T04:05:21.099Z,53.44
2023-04-06T04:06:21.096Z,52.21
2023-04-06T04:07:21.079Z,51.45
2023-04-06T04:08:21.105Z,51.64
2023-04-06T04:09:21.079Z,50.79
2023-04-06T04:10:21.102Z,50.60
2023-04-06T04:11:21.085Z,50.44
2023-04-06T04:12:21.087Z,50.23
2023-04-06T04:13:21.092Z,51.10
2023-04-06T04:14:21.105Z,50.82
2023-04-06T04:15:21.091Z,50.79
2023-04-06T04:16:21.103Z,51.83
2023-04-06T04:17:21.129Z,51.73
2023-04-06T04:18:21.100Z,51.54
2023-04-06T04:19:21.106Z,52.11
2023-04-06T04:20:21.104Z,52.49
2023-04-06T04:21:21.112Z,52.87
2023-04-06T04:22:21.130Z,53.25
2023-04-06T04:23:21.106Z,53.15
2023-04-06T04:24:21.133Z,53.44
2023-04-06T04:25:21.116Z,52.49
2023-04-06T04:26:21.122Z,51.83
2023-04-06T04:27:21.115Z,52.21
2023-04-06T04:28:21.130Z,52.40
2023-04-06T04:29:21.123Z,52.96
2023-04-06T04:30:21.178Z,53.34
2023-04-06T04:31:21.124Z,53.25
2023-04-06T04:32:21.221Z,53.15
2023-04-06T04:33:21.133Z,53.06
2023-04-06T04:34:21.157Z,53.15
2023-04-06T04:35:21.185Z,53.34
2023-04-06T04:36:21.150Z,52.78
2023-04-06T04:37:21.171Z,52.02
2023-04-06T04:38:21.148Z,52.49
2023-04-06T04:39:21.149Z,52.02
2023-04-06T04:40:21.175Z,52.30
2023-04-06T04:41:21.171Z,52.02
2023-04-06T04:42:21.155Z,52.49
2023-04-06T04:43:21.170Z,52.49
2023-04-06T04:44:21.181Z,52.49
2023-04-06T04:45:21.162Z,52.49
2023-04-06T04:46:21.255Z,52.30
2023-04-06T04:47:21.171Z,52.68
2023-04-06T04:48:21.178Z,53.72
2023-04-06T04:49:21.173Z,53.81
2023-04-06T04:50:21.182Z,54.47
2023-04-06T04:51:21.187Z,54.57
2023-04-06T04:52:21.183Z,54.10
2023-04-06T04:53:22.563Z,53.81
2023-04-06T04:54:21.184Z,54.19
2023-04-06T04:55:21.220Z,54.19
2023-04-06T04:56:21.218Z,53.15
2023-04-06T04:57:21.185Z,52.11
2023-04-06T04:58:21.189Z,52.11
2023-04-06T04:59:21.272Z,52.59
2023-04-06T05:00:21.221Z,53.81
2023-04-06T05:01:21.260Z,54.57
2023-04-06T05:02:21.279Z,55.32
2023-04-06T05:03:21.295Z,55.42
2023-04-06T05:04:21.205Z,55.89
2023-04-06T05:05:21.218Z,55.23
2023-04-06T05:06:21.222Z,55.51
2023-04-06T05:07:21.211Z,55.23
2023-04-06T05:08:21.212Z,55.51
2023-04-06T05:09:21.210Z,55.89
2023-04-06T05:10:21.251Z,55.89
2023-04-06T05:11:21.216Z,55.32
2023-04-06T05:12:21.243Z,55.13
2023-04-06T05:13:21.217Z,55.04
2023-04-06T05:14:21.225Z,55.23
2023-04-06T05:15:21.225Z,55.42
2023-04-06T05:16:21.293Z,55.13
2023-04-06T05:17:21.228Z,54.85
2023-04-06T05:18:21.234Z,53.15
2023-04-06T05:19:21.246Z,52.11
2023-04-06T05:20:21.239Z,51.45
2023-04-06T05:21:21.244Z,51.17
2023-04-06T05:22:21.246Z,51.83
2023-04-06T05:23:21.244Z,51.45
2023-04-06T05:24:21.259Z,52.30
2023-04-06T05:25:21.261Z,52.21
2023-04-06T05:26:21.252Z,52.68
2023-04-06T05:27:21.256Z,53.06
2023-04-06T05:28:21.280Z,54.00
2023-04-06T05:29:21.263Z,54.28
2023-04-06T05:30:21.265Z,54.00
2023-04-06T05:31:21.292Z,54.85
2023-04-06T05:32:21.267Z,55.51
2023-04-06T05:33:21.262Z,55.89
2023-04-06T05:34:21.269Z,55.98
2023-04-06T05:35:21.288Z,55.98
2023-04-06T05:36:21.273Z,55.80
2023-04-06T05:37:21.265Z,55.61
2023-04-06T05:38:21.278Z,56.08
2023-04-06T05:39:21.285Z,55.98
2023-04-06T05:40:21.273Z,56.46
2023-04-06T05:41:21.282Z,56.55
2023-04-06T05:42:21.286Z,56.46
2023-04-06T05:43:23.203Z,56.17
2023-04-06T05:44:21.317Z,55.89
2023-04-06T05:45:21.333Z,56.08
2023-04-06T05:46:21.347Z,55.61
2023-04-06T05:47:21.291Z,55.32
2023-04-06T05:48:21.322Z,54.75
2023-04-06T05:49:21.281Z,53.81
2023-04-06T05:50:21.306Z,54.19
2023-04-06T05:51:21.287Z,54.10
2023-04-06T05:52:21.293Z,54.00
2023-04-06T05:53:21.291Z,54.47
2023-04-06T05:54:21.301Z,55.23
2023-04-06T05:55:21.290Z,55.89
2023-04-06T05:56:21.299Z,55.32
2023-04-06T05:57:21.317Z,54.28
2023-04-06T05:58:21.305Z,54.28
2023-04-06T05:59:21.337Z,54.28
2023-04-06T06:00:21.322Z,54.28
2023-04-06T06:01:21.307Z,55.51
2023-04-06T06:02:21.377Z,55.89
2023-04-06T06:03:21.357Z,56.46
2023-04-06T06:04:21.316Z,56.84
2023-04-06T06:05:21.337Z,57.31
2023-04-06T06:06:21.327Z,57.78
2023-04-06T06:07:21.327Z,57.21
2023-04-06T06:08:21.319Z,57.21
2023-04-06T06:09:21.320Z,57.31
2023-04-06T06:10:21.322Z,57.68
2023-04-06T06:11:21.321Z,58.15
2023-04-06T06:12:21.331Z,58.06
2023-04-06T06:13:21.333Z,58.82
2023-04-06T06:14:21.367Z,59.19
2023-04-06T06:15:21.339Z,59.00
2023-04-06T06:16:21.396Z,58.84
2023-04-06T06:17:21.369Z,58.65
2023-04-06T06:18:21.336Z,58.75
2023-04-06T06:19:21.335Z,59.03
2023-04-06T06:20:21.340Z,59.38
2023-04-06T06:21:21.348Z,59.13
2023-04-06T06:22:21.345Z,58.47
2023-04-06T06:23:21.345Z,57.68
2023-04-06T06:24:21.350Z,57.43
2023-04-06T06:25:21.352Z,57.53
2023-04-06T06:26:21.355Z,57.43
2023-04-06T06:27:21.420Z,57.43
2023-04-06T06:28:21.361Z,56.96
2023-04-06T06:29:21.361Z,56.86
2023-04-06T06:30:23.315Z,56.11
2023-04-06T06:31:21.399Z,56.01
2023-04-06T06:32:21.625Z,55.35
2023-04-06T06:33:21.375Z,55.26
2023-04-06T06:34:21.372Z,55.07
2023-04-06T06:35:21.418Z,55.16
2023-04-06T06:36:21.375Z,55.44
2023-04-06T06:37:21.377Z,54.60
2023-04-06T06:38:23.535Z,53.56
2023-04-06T06:39:21.386Z,53.08
2023-04-06T06:40:21.408Z,53.84
2023-04-06T06:41:21.388Z,53.08
2023-04-06T06:42:21.395Z,52.61
2023-04-06T06:43:21.389Z,54.32
2023-04-06T06:44:21.392Z,54.62
2023-04-06T06:45:21.422Z,54.72
2023-04-06T06:46:21.446Z,53.87
2023-04-06T06:47:21.460Z,53.58
2023-04-06T06:48:21.450Z,53.30
2023-04-06T06:49:21.419Z,53.58
2023-04-06T06:50:21.406Z,53.20
2023-04-06T06:51:21.428Z,53.49
2023-04-06T06:52:21.413Z,53.68
2023-04-06T06:53:21.420Z,54.81
2023-04-06T06:54:21.415Z,55.94
2023-04-06T06:55:21.437Z,55.29
2023-04-06T06:56:21.436Z,53.49
2023-04-06T06:57:21.430Z,52.64
2023-04-06T06:58:21.504Z,51.88
2023-04-06T06:59:21.458Z,52.64
2023-04-06T07:00:21.440Z,52.55
2023-04-06T07:01:21.509Z,53.49
2023-04-06T07:02:21.488Z,53.96
2023-04-06T07:03:21.444Z,54.74
2023-04-06T07:04:21.559Z,55.12
2023-04-06T07:05:28.130Z,54.93
2023-04-06T07:06:21.446Z,54.46
2023-04-06T07:07:21.450Z,54.27
2023-04-06T07:08:21.478Z,54.65
2023-04-06T07:09:21.477Z,54.55
2023-04-06T07:10:21.472Z,52.67
2023-04-06T07:11:21.461Z,52.38
2023-04-06T07:12:21.474Z,51.72
2023-04-06T07:13:21.478Z,50.59
2023-04-06T07:14:21.487Z,50.59
2023-04-06T07:15:21.484Z,51.53
2023-04-06T07:16:21.529Z,50.96
2023-04-06T07:17:21.534Z,50.96
2023-04-06T07:18:21.476Z,50.87
2023-04-06T07:19:21.500Z,50.40
2023-04-06T07:20:21.520Z,50.87
2023-04-06T07:21:21.490Z,50.78
2023-04-06T07:22:21.488Z,49.64
2023-04-06T07:23:21.503Z,49.26
2023-04-06T07:24:21.526Z,49.54
2023-04-06T07:25:23.603Z,51.06
2023-04-06T07:26:21.523Z,52.57
2023-04-06T07:27:21.519Z,52.76
2023-04-06T07:28:21.506Z,53.52
2023-04-06T07:29:21.533Z,53.14
2023-04-06T07:30:21.530Z,52.57
2023-04-06T07:31:21.559Z,54.08
2023-04-06T07:32:21.555Z,54.65
2023-04-06T07:33:21.533Z,54.96
2023-04-06T07:34:21.541Z,55.82
2023-04-06T07:35:21.560Z,56.10
2023-04-06T07:36:21.561Z,55.34
2023-04-06T07:37:21.542Z,52.60
2023-04-06T07:38:21.541Z,53.45
2023-04-06T07:39:21.544Z,51.56
2023-04-06T07:40:21.550Z,49.66
2023-04-06T07:41:21.553Z,50.23
2023-04-06T07:42:21.562Z,49.95
2023-04-06T07:43:21.559Z,51.75
2023-04-06T07:44:21.561Z,52.12
2023-04-06T07:45:21.580Z,50.80
2023-04-06T07:46:21.604Z,48.72
2023-04-06T07:47:21.603Z,47.39
2023-04-06T07:48:21.576Z,47.11
2023-04-06T07:49:21.589Z,46.83
2023-04-06T07:50:21.586Z,46.83
2023-04-06T07:51:21.591Z,47.30
2023-04-06T07:52:21.606Z,47.39
2023-04-06T07:53:21.593Z,49.76
2023-04-06T07:54:21.622Z,50.52
2023-04-06T07:55:21.599Z,50.99
2023-04-06T07:56:21.598Z,51.84
2023-04-06T07:57:21.608Z,53.83
2023-04-06T07:58:21.608Z,52.34
2023-04-06T07:59:21.662Z,50.73
2023-04-06T08:00:21.624Z,51.77
2023-04-06T08:01:21.627Z,52.62
2023-04-06T08:02:21.695Z,52.15
2023-04-06T08:03:21.810Z,52.72
2023-04-06T08:04:21.705Z,52.72
2023-04-06T08:05:21.649Z,50.35
2023-04-06T08:06:21.641Z,49.22
2023-04-06T08:07:21.644Z,48.08
2023-04-06T08:08:21.675Z,48.55
2023-04-06T08:09:21.656Z,47.99
2023-04-06T08:10:21.670Z,47.89
2023-04-06T08:11:21.665Z,47.61
2023-04-06T08:12:21.696Z,49.98
2023-04-06T08:13:21.681Z,51.01
2023-04-06T08:14:21.666Z,48.77
2023-04-06T08:15:21.682Z,49.52
2023-04-06T08:16:21.763Z,48.96
2023-04-06T08:17:21.694Z,48.10
2023-04-06T08:18:21.685Z,47.53
2023-04-06T08:19:21.687Z,48.68
2023-04-06T08:20:21.704Z,49.52
2023-04-06T08:21:21.697Z,48.68
2023-04-06T08:22:21.696Z,48.51
2023-04-06T08:23:21.705Z,46.80
2023-04-06T08:24:21.741Z,44.60
2023-04-06T08:25:21.715Z,45.17
2023-04-06T08:26:21.711Z,45.36
2023-04-06T08:27:21.776Z,45.74
2023-04-06T08:28:21.720Z,47.72
2023-04-06T08:29:21.731Z,48.29
2023-04-06T08:30:21.750Z,46.02
2023-04-06T08:31:21.772Z,44.60
2023-04-06T08:32:21.738Z,44.89
2023-04-06T08:33:21.754Z,43.84
2023-04-06T08:34:21.749Z,42.71
2023-04-06T08:35:21.786Z,43.27
2023-04-06T08:36:21.762Z,43.65
2023-04-06T08:37:21.772Z,44.13
2023-04-06T08:38:21.780Z,43.27
2023-04-06T08:39:21.773Z,44.32
2023-04-06T08:40:21.880Z,42.90
2023-04-06T08:41:21.784Z,43.56
2023-04-06T08:42:21.784Z,44.79
2023-04-06T08:43:21.792Z,44.70
2023-04-06T08:44:21.797Z,44.13
2023-04-06T08:45:21.801Z,46.33
2023-04-06T08:46:21.841Z,47.75
2023-04-06T08:47:24.679Z,45.57
2023-04-06T08:48:21.813Z,43.39
2023-04-06T08:49:21.820Z,43.30
2023-04-06T08:50:21.863Z,41.88
2023-04-06T08:51:21.829Z,41.78
2023-04-06T08:52:21.831Z,42.16
2023-04-06T08:53:24.182Z,43.01
2023-04-06T08:54:21.846Z,43.96
2023-04-06T08:55:21.847Z,44.34
2023-04-06T08:56:21.869Z,43.49
2023-04-06T08:57:21.862Z,44.43
2023-04-06T08:58:35.216Z,45.67
2023-04-06T08:59:21.913Z,45.95
2023-04-06T09:00:21.922Z,47.18
2023-04-06T09:01:21.876Z,47.58
2023-04-06T09:02:21.939Z,49.67
2023-04-06T09:03:22.015Z,50.24
2023-04-06T09:04:22.034Z,49.67
2023-04-06T09:05:21.895Z,47.77
2023-04-06T09:06:21.895Z,47.30
2023-04-06T09:07:21.917Z,46.16
2023-04-06T09:08:21.910Z,46.07
2023-04-06T09:09:24.674Z,46.83
2023-04-06T09:10:21.920Z,47.11
2023-04-06T09:11:21.931Z,46.56
2023-04-06T09:12:21.949Z,45.31
2023-04-06T09:13:21.941Z,45.69
2023-04-06T09:14:21.944Z,45.50
2023-04-06T09:15:24.347Z,44.17
2023-04-06T09:16:21.977Z,44.46
2023-04-06T09:17:21.968Z,44.43
2023-04-06T09:18:21.965Z,45.31
2023-04-06T09:19:21.972Z,47.39
2023-04-06T09:20:21.978Z,45.50
2023-04-06T09:21:24.649Z,44.08
2023-04-06T09:22:21.985Z,44.74
2023-04-06T09:23:22.008Z,45.50
2023-04-06T09:24:21.998Z,47.20
2023-04-06T09:25:22.016Z,47.39
2023-04-06T09:26:22.014Z,47.52
2023-04-06T09:27:22.026Z,49.43
2023-04-06T09:28:22.049Z,48.20
2023-04-06T09:29:22.038Z,48.11
2023-04-06T09:30:22.037Z,46.59
2023-04-06T09:31:22.050Z,45.62
2023-04-06T09:32:22.067Z,44.85
2023-04-06T09:33:22.064Z,45.81
2023-04-06T09:34:22.063Z,45.33
2023-04-06T09:35:22.137Z,43.91
2023-04-06T09:36:22.076Z,43.91
2023-04-06T09:37:22.080Z,46.88
2023-04-06T09:38:22.105Z,47.25
2023-04-06T09:39:22.096Z,44.69
2023-04-06T09:40:22.103Z,44.12
2023-04-06T09:41:22.109Z,45.26
2023-04-06T09:42:22.130Z,44.21
2023-04-06T09:43:22.124Z,47.06
2023-04-06T09:44:22.149Z,45.54
2023-04-06T09:45:22.185Z,43.46
2023-04-06T09:46:22.210Z,44.50
2023-04-06T09:47:22.212Z,43.93
2023-04-06T09:48:22.167Z,45.26
2023-04-06T09:49:22.159Z,43.08
2023-04-06T09:50:22.163Z,44.60
2023-04-06T09:51:22.204Z,46.51
2023-04-06T09:52:22.184Z,44.60
2023-04-06T09:53:22.186Z,41.94
2023-04-06T09:54:22.256Z,40.59
2023-04-06T09:55:22.206Z,40.88
2023-04-06T09:56:22.200Z,42.58
2023-04-06T09:57:22.223Z,45.26
2023-04-06T09:58:22.248Z,43.15
2023-04-06T09:59:22.296Z,42.70
2023-04-06T10:00:22.240Z,42.98
2023-04-06T10:01:22.260Z,44.60
2023-04-06T10:02:22.278Z,45.47
2023-04-06T10:03:22.401Z,44.62
2023-04-06T10:04:22.254Z,43.19
2023-04-06T10:05:22.265Z,44.14
2023-04-06T10:06:22.268Z,43.95
2023-04-06T10:07:22.277Z,45.50
2023-04-06T10:08:22.289Z,43.12
2023-04-06T10:09:22.289Z,43.10
2023-04-06T10:10:22.301Z,44.14
2023-04-06T10:11:22.309Z,41.94
2023-04-06T10:12:22.306Z,44.12
2023-04-06T10:13:22.326Z,46.61
2023-04-06T10:14:22.322Z,44.62
2023-04-06T10:15:23.130Z,43.57
2023-04-06T10:16:22.401Z,41.94
2023-04-06T10:17:22.379Z,42.98
2023-04-06T10:18:22.353Z,44.12
2023-04-06T10:19:22.364Z,44.02
2023-04-06T10:20:22.367Z,45.38
2023-04-06T10:21:22.381Z,46.04
2023-04-06T10:22:22.376Z,45.85
2023-04-06T10:23:22.388Z,46.83
2023-04-06T10:24:22.394Z,44.83
2023-04-06T10:25:22.403Z,44.73
2023-04-06T10:26:22.482Z,43.67
2023-04-06T10:27:22.418Z,42.82
2023-04-06T10:28:22.425Z,42.63
2023-04-06T10:29:22.446Z,45.38
2023-04-06T10:30:22.445Z,45.50
2023-04-06T10:31:22.469Z,44.26
2023-04-06T10:32:22.522Z,44.73
2023-04-06T10:33:22.473Z,43.31
2023-04-06T10:34:22.476Z,45.12
2023-04-06T10:35:22.493Z,45.78
2023-04-06T10:36:22.500Z,45.42
2023-04-06T10:37:22.527Z,44.54
2023-04-06T10:38:22.504Z,43.02
2023-04-06T10:39:22.516Z,43.41
2023-04-06T10:40:22.515Z,43.60
2023-04-06T10:41:22.537Z,44.54
2023-04-06T10:42:22.535Z,42.36
2023-04-06T10:43:22.626Z,43.21
2023-04-06T10:44:22.574Z,43.21
2023-04-06T10:45:22.559Z,45.42
2023-04-06T10:46:22.662Z,45.33
2023-04-06T10:47:22.725Z,43.33
2023-04-06T10:48:22.610Z,40.80
2023-04-06T10:49:22.919Z,42.24
2023-04-06T10:50:22.613Z,44.53
2023-04-06T10:51:22.608Z,46.83
2023-04-06T10:52:22.620Z,46.09
2023-04-06T10:53:22.623Z,44.54
2023-04-06T10:54:22.636Z,44.19
2023-04-06T10:55:22.639Z,42.36
2023-04-06T10:56:22.660Z,43.21
2023-04-06T10:57:22.655Z,44.54
2023-04-06T10:58:22.665Z,43.98
2023-04-06T10:59:22.899Z,44.26
2023-04-06T11:00:22.687Z,43.21
2023-04-06T11:01:22.996Z,43.38
2023-04-06T11:02:22.708Z,45.78
2023-04-06T11:03:22.703Z,44.64
2023-04-06T11:04:22.739Z,44.17
2023-04-06T11:05:22.723Z,42.91
2023-04-06T11:06:22.731Z,43.88
2023-04-06T11:07:22.745Z,45.78
2023-04-06T11:08:22.745Z,46.75
2023-04-06T11:09:22.751Z,44.14
2023-04-06T11:10:22.817Z,43.19
2023-04-06T11:11:22.820Z,42.79
2023-04-06T11:12:22.778Z,45.76
2023-04-06T11:13:22.789Z,45.47
2023-04-06T11:14:22.802Z,43.34
2023-04-06T11:15:22.806Z,43.17
2023-04-06T11:16:22.864Z,45.76
2023-04-06T11:17:22.810Z,45.31
2023-04-06T11:18:22.831Z,44.17
2023-04-06T11:19:22.829Z,41.86
2023-04-06T11:20:22.859Z,40.53
2023-04-06T11:21:22.846Z,40.61
2023-04-06T11:22:22.866Z,41.01
2023-04-06T11:23:22.860Z,42.82
2023-04-06T11:24:22.872Z,42.41
2023-04-06T11:25:22.882Z,44.14
2023-04-06T11:26:22.887Z,45.40
2023-04-06T11:27:22.896Z,44.17
2023-04-06T11:28:22.905Z,42.46
2023-04-06T11:29:22.924Z,42.55
2023-04-06T11:30:22.922Z,42.08
2023-04-06T11:31:22.935Z,40.34
2023-04-06T11:32:22.989Z,40.34
2023-04-06T11:33:22.949Z,41.27
2023-04-06T11:34:22.961Z,40.61
2023-04-06T11:35:22.988Z,41.66
2023-04-06T11:36:23.051Z,42.91
2023-04-06T11:37:22.985Z,42.15
2023-04-06T11:38:23.010Z,43.02
2023-04-06T11:39:22.995Z,41.89
2023-04-06T11:40:23.002Z,40.25
2023-04-06T11:41:23.005Z,40.34
2023-04-06T11:42:23.019Z,42.65
2023-04-06T11:43:23.084Z,43.41
2023-04-06T11:44:23.033Z,42.74
2023-04-06T11:45:23.052Z,41.98
2023-04-06T11:46:23.066Z,42.47
2023-04-06T11:47:23.086Z,40.48
2023-04-06T11:48:23.763Z,39.72
2023-04-06T11:49:23.165Z,40.48
2023-04-06T11:50:23.082Z,40.27
2023-04-06T11:51:23.090Z,41.13
2023-04-06T11:52:23.124Z,42.00
2023-04-06T11:53:23.102Z,41.50
2023-04-06T11:54:23.114Z,42.55
2023-04-06T11:55:23.119Z,40.65
2023-04-06T11:56:23.131Z,39.79
2023-04-06T11:57:23.136Z,39.98
2023-04-06T11:58:23.146Z,42.86
2023-04-06T11:59:23.169Z,41.83
2023-04-06T12:00:23.177Z,38.39
2023-04-06T12:01:23.165Z,38.70
2023-04-06T12:02:23.439Z,37.80
2023-04-06T12:03:23.449Z,38.96
2023-04-06T12:04:23.222Z,38.85
2023-04-06T12:05:23.202Z,42.29
2023-04-06T12:06:23.208Z,41.24
2023-04-06T12:07:23.214Z,40.69
2023-04-06T12:08:23.292Z,40.88
2023-04-06T12:09:23.234Z,39.36
2023-04-06T12:10:23.245Z,39.36
2023-04-06T12:11:23.255Z,40.05
2023-04-06T12:12:23.262Z,39.19
2023-04-06T12:13:23.262Z,36.70
2023-04-06T12:14:23.281Z,38.14
2023-04-06T12:15:23.282Z,39.09
2023-04-06T12:16:23.376Z,37.84
2023-04-06T12:17:23.322Z,38.51
2023-04-06T12:18:23.312Z,36.89
2023-04-06T12:19:23.321Z,37.15
2023-04-06T12:20:27.097Z,38.22
2023-04-06T12:21:23.335Z,39.17
2023-04-06T12:22:23.346Z,38.60
2023-04-06T12:23:23.356Z,40.69
2023-04-06T12:24:23.398Z,40.41
2023-04-06T12:25:23.385Z,39.36
2023-04-06T12:26:23.384Z,39.55
2023-04-06T12:27:23.399Z,39.07
2023-04-06T12:28:23.401Z,39.74
2023-04-06T12:29:23.406Z,39.43
2023-04-06T12:30:23.428Z,38.46
2023-04-06T12:31:23.479Z,37.40
2023-04-06T12:32:23.513Z,38.26
2023-04-06T12:33:23.498Z,38.09
2023-04-06T12:34:23.461Z,37.42
2023-04-06T12:35:23.473Z,36.07
2023-04-06T12:36:23.509Z,37.23
2023-04-06T12:37:23.484Z,37.04
2023-04-06T12:38:23.496Z,37.71
2023-04-06T12:39:23.504Z,36.47
2023-04-06T12:40:23.556Z,36.28
2023-04-06T12:41:23.517Z,36.85
2023-04-06T12:42:23.542Z,37.13
2023-04-06T12:43:23.557Z,37.99
2023-04-06T12:44:25.409Z,39.13
2023-04-06T12:45:23.576Z,37.90
2023-04-06T12:46:23.589Z,36.68
2023-04-06T12:47:23.647Z,36.58
2023-04-06T12:48:23.584Z,35.92
2023-04-06T12:49:23.598Z,36.30
2023-04-06T12:50:23.611Z,35.73
2023-04-06T12:51:23.613Z,34.95
2023-04-06T12:52:23.618Z,34.86